X06 weather

Arcadia Municipal Airport
Arcadia, Florida, United States

Public forecast

Using degrees Fahrenheit for public forecast. Weather courtesy of forecast.io.

METAR (pilot weather report)

Closest report is Charlotte County Airport, 18.3 nm (33.8 km) SSW. Retrieved 2019/07/21 20:27 UTC (6 minutes ago):

KPGD 212027Z 16015KT 1SM +TSRA BR SCT037 BKN046 OVC065 25/23 A3007 RMK AO2 WSHFT 1945 LTG DSNT ALQDS RAB22 PRESRR P0014 T02500228

TAF (pilot weather forecast)

Closest forecast is Charlotte County Airport, 18.3 nm (33.8 km) SSW. Retrieved 2019/07/21 18:24 UTC (2 hours ago):

TAF KPGD 211723Z 2118/2218 17009KT P6SM VCTS SCT030CB BKN080 BKN200 FM212000 21007KT P6SM VCTS SCT030CB BKN090 OVC200 TEMPO 2121/2123 VRB20G30KT 4SM TSRA BKN030CB FM220000 36005KT P6SM VCSH BKN030 BKN080 FM220200 VRB03KT P6SM SCT035 BKN200 FM221500 14006KT P6SM SCT040 BKN100